Time;durP1;ratioP1;P1;durP2;ratioP2;P2;SDS_P1;SDS_P2;PMS_P1;PMS_P2;Temp;Humidity;BMP_temperature;BMP_pressure;BME280_temperature;BME280_humidity;BME280_pressure;Samples;Min_cycle;Max_cycle;Signal;HPM_P1;HPM_P2
2022/08/12 00:44:49;;;;;;;;;15.25;14.75;;;;;23.33;40.15;101019.06;5076689;28;45338;-87
2022/08/12 00:47:17;;;;;;;;;15.00;15.00;;;;;23.25;40.70;101010.25;5076466;28;45564;-91
2022/08/12 00:49:44;;;;;;;;;14.50;14.50;;;;;23.30;41.08;101025.38;5076295;28;45503;-92
2022/08/12 00:52:10;;;;;;;;;15.50;15.00;;;;;23.16;41.22;101017.53;5076615;28;45334;-91
2022/08/12 00:54:45;;;;;;;;;17.75;17.00;;;;;23.12;41.30;101005.06;5077078;28;45392;-87
2022/08/12 00:57:21;;;;;;;;;16.50;16.00;;;;;23.13;41.44;101004.13;5077600;28;45342;-93
2022/08/12 01:00:13;;;;;;;;;16.00;16.00;;;;;23.27;41.07;101033.47;5092864;27;47226;-92
2022/08/12 01:02:41;;;;;;;;;14.50;14.00;;;;;23.21;41.48;101020.16;5075959;27;45363;-91
2022/08/12 01:13:30;;;;;;;;;16.00;16.00;;;;;23.16;41.70;101025.56;5076498;28;45236;-93
2022/08/12 01:16:02;;;;;;;;;17.25;16.75;;;;;22.94;41.90;100989.19;5092333;27;45450;-91
2022/08/12 01:18:31;;;;;;;;;16.25;15.00;;;;;22.96;41.80;100997.25;5092437;27;45262;-92
2022/08/12 01:21:34;;;;;;;;;15.25;15.00;;;;;23.11;41.88;101024.72;5074955;28;48536;-91
2022/08/12 01:24:27;;;;;;;;;16.00;16.00;;;;;23.11;42.29;101018.50;5076302;27;45305;-92
2022/08/12 01:26:54;;;;;;;;;16.00;16.00;;;;;23.07;42.02;101019.44;5092613;27;45365;-92
2022/08/12 01:29:26;;;;;;;;;16.50;15.25;;;;;23.08;42.23;101024.75;5076873;28;45443;-91
2022/08/12 01:31:55;;;;;;;;;18.50;18.25;;;;;23.00;42.47;101018.59;5076204;28;45413;-91
2022/08/12 01:34:32;;;;;;;;;17.25;17.25;;;;;23.04;41.91;101020.34;5075856;27;45322;-92
2022/08/12 01:37:01;;;;;;;;;15.00;14.25;;;;;22.90;42.26;101001.72;5075030;28;45472;-92
2022/08/12 01:39:32;;;;;;;;;17.50;16.75;;;;;23.00;42.04;101018.59;5076018;28;45319;-92
2022/08/12 01:42:02;;;;;;;;;15.50;15.50;;;;;22.87;42.67;101008.91;5076159;28;45875;-92
2022/08/12 01:44:30;;;;;;;;;18.50;17.75;;;;;22.78;42.73;100982.22;5091793;27;46105;-89
2022/08/12 01:47:08;;;;;;;;;19.25;18.50;;;;;22.89;42.37;101007.13;5075862;28;45318;-84
2022/08/12 01:49:52;;;;;;;;;18.75;18.75;;;;;22.97;42.86;101015.97;5075191;28;45384;-90
2022/08/12 01:52:54;;;;;;;;;18.50;18.50;;;;;22.96;42.63;101018.69;5073546;28;48075;-90
2022/08/12 01:55:27;;;;;;;;;17.50;17.50;;;;;22.80;42.53;100993.78;5075571;28;46041;-91
2022/08/12 02:01:24;;;;;;;;;17.25;17.00;;;;;22.51;42.61;100946.81;5075200;28;45378;-86
2022/08/12 02:12:44;;;;;;;;;19.50;18.50;;;;;22.76;43.23;101000.09;5075019;28;45323;-84
2022/08/12 02:15:22;;;;;;;;;18.25;16.75;;;;;22.53;43.15;100966.41;5074997;27;45845;-91
2022/08/12 02:18:07;;;;;;;;;19.00;18.00;;;;;22.49;42.95;100958.44;5075087;28;45385;-90
2022/08/12 02:20:58;;;;;;;;;16.75;16.50;;;;;22.66;43.11;100981.47;5074937;28;45315;-89
2022/08/12 02:23:27;;;;;;;;;18.00;17.75;;;;;22.63;43.31;100978.81;5072297;27;45652;-89
2022/08/12 02:25:58;;;;;;;;;16.75;16.75;;;;;22.49;43.14;100955.75;5075363;28;45631;-90
2022/08/12 02:28:23;;;;;;;;;17.50;17.50;;;;;22.59;43.22;100977.06;5075197;28;45888;-92
2022/08/12 02:30:49;;;;;;;;;17.75;17.75;;;;;22.51;43.34;100975.34;5091026;27;45328;-89
2022/08/12 02:33:16;;;;;;;;;19.25;18.75;;;;;22.60;43.55;100983.31;5075133;28;45563;-90
2022/08/12 02:35:43;;;;;;;;;17.75;17.75;;;;;22.30;43.42;100938.97;5074451;28;46199;-93
2022/08/12 02:38:11;;;;;;;;;19.50;19.50;;;;;22.40;43.20;100959.41;5075090;28;45679;-92
2022/08/12 02:40:41;;;;;;;;;18.00;17.75;;;;;22.54;43.44;100986.06;5075352;28;45681;-93
2022/08/12 02:43:20;;;;;;;;;21.00;20.25;;;;;22.56;43.33;100993.19;5075123;27;45378;-88
2022/08/12 02:46:01;;;;;;;;;19.25;19.00;;;;;22.54;43.44;100994.97;5090386;27;48339;-89
2022/08/12 02:48:49;;;;;;;;;18.50;18.50;;;;;22.51;43.76;100995.03;5074965;28;45414;-92
2022/08/12 02:51:19;;;;;;;;;17.50;17.50;;;;;22.23;43.71;100946.22;5074781;28;45673;-91
2022/08/12 02:53:45;;;;;;;;;19.50;19.50;;;;;22.27;43.99;100960.47;5074537;27;45492;-91
2022/08/12 02:56:14;;;;;;;;;19.00;19.00;;;;;22.25;43.93;100970.28;5074284;28;45541;-91
2022/08/12 02:58:39;;;;;;;;;19.25;18.50;;;;;22.30;43.76;100973.78;5074796;27;45351;-92
2022/08/12 03:01:09;;;;;;;;;20.50;19.25;;;;;22.37;44.01;100988.91;5074721;28;45340;-90
2022/08/12 03:03:36;;;;;;;;;19.00;18.00;;;;;22.27;43.95;100976.53;5074900;27;45216;-90
2022/08/12 03:06:07;;;;;;;;;21.00;20.75;;;;;22.23;44.06;100975.66;5074257;28;45457;-91
2022/08/12 03:08:42;;;;;;;;;20.25;20.25;;;;;22.33;44.03;100997.88;5074853;28;45889;-91
2022/08/12 03:11:35;;;;;;;;;22.25;21.25;;;;;22.28;44.12;100997.94;5074867;27;45445;-90
2022/08/12 03:14:01;;;;;;;;;17.75;17.75;;;;;22.23;44.48;100989.03;5074634;28;45643;-86
2022/08/12 03:16:31;;;;;;;;;19.25;18.75;;;;;21.99;44.13;100946.41;5074473;28;45451;-92
2022/08/12 03:18:57;;;;;;;;;18.50;17.75;;;;;22.25;44.05;100997.94;5074509;28;45387;-91
2022/08/12 03:21:24;;;;;;;;;16.25;16.25;;;;;22.02;43.62;100952.63;5074551;27;45680;-93
2022/08/12 03:23:52;;;;;;;;;19.25;18.25;;;;;22.01;43.87;100964.22;5074750;28;45347;-90
2022/08/12 03:26:20;;;;;;;;;17.50;17.25;;;;;22.00;43.65;100956.19;5074214;28;46390;-92
2022/08/12 03:28:49;;;;;;;;;20.00;19.25;;;;;22.17;44.22;100990.88;5074342;28;45441;-87
2022/08/12 03:31:19;;;;;;;;;18.75;18.50;;;;;22.04;43.99;100976.69;5075603;28;45342;-90
2022/08/12 03:33:47;;;;;;;;;19.25;19.00;;;;;21.97;44.42;100975.88;5077134;28;45299;-90
2022/08/12 03:36:17;;;;;;;;;18.50;17.75;;;;;21.95;44.44;100985.69;5077431;28;46375;-88
2022/08/12 03:38:57;;;;;;;;;19.75;19.25;;;;;21.95;44.79;100993.72;5077450;28;45306;-84
2022/08/12 03:41:34;;;;;;;;;20.25;19.75;;;;;21.74;44.91;100959.09;5076264;28;45436;-82
2022/08/12 04:00:57;;;;;;;;;19.00;19.00;;;;;21.58;45.45;100955.66;5077163;28;46133;-87
2022/08/12 04:06:08;;;;;;;;;22.25;20.50;;;;;21.63;45.69;100978.81;5076797;28;45365;-86
2022/08/12 04:08:34;;;;;;;;;20.50;20.50;;;;;21.43;45.14;100940.63;5077017;28;46241;-87
2022/08/12 04:13:44;;;;;;;;;19.25;18.75;;;;;21.58;45.11;100972.59;5077311;28;45429;-85
2022/08/12 04:16:12;;;;;;;;;16.50;16.50;;;;;21.52;45.65;100963.72;5076939;27;45309;-90
2022/08/12 04:18:39;;;;;;;;;18.50;18.50;;;;;21.30;45.53;100926.44;5092579;27;47317;-91
2022/08/12 04:21:09;;;;;;;;;21.50;19.50;;;;;21.31;45.95;100927.31;5075136;28;45454;-88
2022/08/12 04:23:37;;;;;;;;;21.00;20.00;;;;;21.52;45.68;100967.25;5076860;28;45428;-88
2022/08/12 04:26:05;;;;;;;;;19.75;19.75;;;;;21.46;45.74;100961.97;5077209;28;45283;-91
2022/08/12 04:28:31;;;;;;;;;21.25;19.75;;;;;21.47;46.22;100965.53;5092201;27;48560;-89
2022/08/12 04:30:57;;;;;;;;;17.75;17.50;;;;;21.41;45.98;100969.13;5075329;28;45580;-85
2022/08/12 04:33:24;;;;;;;;;23.25;21.25;;;;;21.27;45.93;100944.22;5077106;28;45495;-89
2022/08/12 04:35:49;;;;;;;;;21.00;19.50;;;;;21.52;45.99;100985.09;5076352;28;45260;-88
2022/08/12 04:38:15;;;;;;;;;21.50;21.25;;;;;21.29;46.15;100947.81;5076282;28;45678;-90
2022/08/12 04:40:41;;;;;;;;;20.75;20.75;;;;;21.18;46.04;100929.16;5076658;28;45868;-89
2022/08/12 04:43:08;;;;;;;;;21.50;20.50;;;;;21.51;45.85;100991.34;5075153;28;45364;-84
2022/08/12 04:45:37;;;;;;;;;23.00;23.00;;;;;21.50;45.79;100987.78;5076648;28;45359;-88
2022/08/12 04:48:03;;;;;;;;;18.00;18.00;;;;;21.50;46.14;100990.47;5076432;27;45467;-89
2022/08/12 04:50:30;;;;;;;;;18.75;18.25;;;;;21.50;46.13;100985.13;5076493;28;45771;-89
2022/08/12 04:52:56;;;;;;;;;19.75;19.75;;;;;21.50;46.21;100987.78;5076444;28;45402;-89
2022/08/12 04:55:22;;;;;;;;;20.50;20.50;;;;;21.39;46.06;100970.94;5076679;27;45290;-87
2022/08/12 04:57:48;;;;;;;;;21.75;21.25;;;;;21.32;45.99;100950.47;5092039;27;47539;-89
2022/08/12 05:00:15;;;;;;;;;22.00;21.50;;;;;21.42;45.99;100970.91;5076144;28;45608;-89
2022/08/12 05:02:41;;;;;;;;;20.00;20.00;;;;;21.56;45.90;100993.09;5076462;28;45359;-89
2022/08/12 05:05:21;;;;;;;;;20.00;20.00;;;;;21.44;45.82;100973.59;5076151;28;45267;-91
2022/08/12 05:07:47;;;;;;;;;19.50;19.00;;;;;21.48;46.09;100986.06;5075086;28;47590;-88
2022/08/12 05:10:13;;;;;;;;;24.00;23.00;;;;;21.58;46.11;100998.47;5076685;28;45569;-92
2022/08/12 05:12:43;;;;;;;;;21.25;21.25;;;;;21.60;46.03;100999.31;5076387;28;45428;-83
2022/08/12 05:15:09;;;;;;;;;25.00;23.00;;;;;21.37;46.07;100954.00;5091615;27;45397;-83
2022/08/12 05:17:34;;;;;;;;;21.50;21.25;;;;;21.56;46.13;100990.44;5075834;28;45363;-83
2022/08/12 05:19:59;;;;;;;;;20.00;20.00;;;;;21.64;46.05;101004.66;5075045;28;47552;-87
2022/08/12 05:22:26;;;;;;;;;20.33;19.33;;;;;21.46;46.06;100967.31;5075901;28;45527;-88
2022/08/12 05:24:54;;;;;;;;;20.75;20.50;;;;;21.45;45.98;100965.53;5075771;28;45462;-85
2022/08/12 05:27:21;;;;;;;;;20.50;19.50;;;;;21.74;45.98;101010.81;5075854;28;58208;-94
2022/08/12 05:29:48;;;;;;;;;20.50;20.50;;;;;21.31;46.40;100935.34;5076789;28;45432;-92
2022/08/12 05:32:19;;;;;;;;;20.50;19.50;;;;;21.76;46.64;101002.78;5075524;28;45408;-91
2022/08/12 05:34:45;;;;;;;;;19.75;19.00;;;;;21.61;46.55;100975.22;5075274;28;45567;-92
2022/08/12 05:37:11;;;;;;;;;20.25;19.50;;;;;21.47;46.95;100946.81;5076300;28;46346;-87
2022/08/12 05:39:36;;;;;;;;;21.50;21.50;;;;;21.69;46.99;100976.97;5076255;27;47108;-92
2022/08/12 05:42:02;;;;;;;;;20.25;20.25;;;;;21.71;46.79;100985.88;5076475;28;45275;-90
2022/08/12 05:44:27;;;;;;;;;20.75;19.75;;;;;21.87;46.92;101003.56;5075130;28;45611;-93
2022/08/12 05:46:53;;;;;;;;;20.50;19.25;;;;;21.83;46.32;100977.78;5075986;28;46698;-89
2022/08/12 05:49:18;;;;;;;;;22.00;21.33;;;;;21.85;45.83;100981.31;5075849;28;45337;-90
2022/08/12 05:51:43;;;;;;;;;19.67;19.00;;;;;21.78;46.28;100959.06;5074321;28;45449;-91
2022/08/12 05:54:10;;;;;;;;;19.67;19.33;;;;;22.12;46.20;101012.38;5073695;28;51562;-88
2022/08/12 05:56:35;;;;;;;;;20.50;20.50;;;;;21.94;46.51;100975.88;5075759;28;45426;-90
2022/08/12 05:59:05;;;;;;;;;19.75;19.25;;;;;22.20;46.60;101009.59;5075795;28;45378;-90
2022/08/12 06:01:30;;;;;;;;;23.00;22.00;;;;;22.24;46.96;100997.97;5075744;28;45528;-93
2022/08/12 06:03:56;;;;;;;;;20.25;19.50;;;;;22.13;46.32;100980.22;5075491;28;45456;-90
2022/08/12 06:06:22;;;;;;;;;20.25;19.50;;;;;22.26;46.11;100990.78;5090852;27;47965;-92
2022/08/12 06:08:52;;;;;;;;;18.00;18.00;;;;;22.37;45.37;101000.53;5076139;28;45713;-92
2022/08/12 06:11:21;;;;;;;;;18.75;18.75;;;;;22.48;45.41;101005.75;5075912;27;45297;-91
2022/08/12 06:13:47;;;;;;;;;20.25;18.75;;;;;22.46;45.00;100986.13;5075495;28;45545;-87
2022/08/12 06:16:14;;;;;;;;;18.75;17.50;;;;;22.42;44.79;100970.13;5073871;28;48200;-92
2022/08/12 06:18:41;;;;;;;;;19.25;18.75;;;;;22.70;45.05;101000.16;5075705;28;45856;-89
2022/08/12 06:21:08;;;;;;;;;18.25;16.75;;;;;22.74;44.18;100991.19;5075138;28;45239;-93
2022/08/12 06:23:35;;;;;;;;;15.75;14.50;;;;;22.84;43.22;100992.84;5075420;28;45339;-92
2022/08/12 06:26:00;;;;;;;;;16.50;16.50;;;;;23.03;43.42;101004.28;5073911;28;46998;-92
2022/08/12 06:28:29;;;;;;;;;17.75;17.25;;;;;23.12;43.29;101007.72;5091231;27;45642;-93
2022/08/12 06:30:55;;;;;;;;;14.75;14.75;;;;;23.02;43.27;100981.94;5074289;28;45410;-93
2022/08/12 06:33:20;;;;;;;;;16.00;15.00;;;;;23.24;41.83;101012.03;5075388;28;45374;-91
2022/08/12 06:35:46;;;;;;;;;17.00;16.67;;;;;23.16;41.35;100971.94;5090164;27;64528;-92
2022/08/12 06:38:17;;;;;;;;;17.25;15.50;;;;;23.39;41.84;100998.41;5091028;27;46063;-92
2022/08/12 06:43:28;;;;;;;;;15.75;14.50;;;;;23.52;40.99;100984.84;5075543;28;45462;-91
2022/08/12 06:45:56;;;;;;;;;13.00;12.25;;;;;23.68;40.45;100994.44;5073590;28;47217;-85
2022/08/12 06:48:23;;;;;;;;;15.75;15.00;;;;;23.64;39.59;100987.34;5075077;28;45465;-93
2022/08/12 06:50:49;;;;;;;;;13.50;13.00;;;;;23.81;39.67;100993.38;5074816;28;45429;-90
2022/08/12 06:53:15;;;;;;;;;14.00;14.00;;;;;23.97;38.93;101006.53;5075375;28;45312;-92
2022/08/12 06:55:41;;;;;;;;;12.25;11.25;;;;;23.80;39.01;100967.44;5074899;27;46483;-87
2022/08/12 06:58:07;;;;;;;;;13.50;13.50;;;;;24.07;37.64;101003.66;5090875;27;45565;-88
2022/08/12 07:00:34;;;;;;;;;12.00;12.00;;;;;24.09;38.44;100987.53;5074864;28;45399;-92
2022/08/12 07:03:02;;;;;;;;;12.25;12.25;;;;;24.23;38.19;101006.97;5074853;27;45284;-91
2022/08/12 07:05:28;;;;;;;;;14.25;14.00;;;;;24.16;37.77;100991.88;5073652;28;47028;-88
2022/08/12 07:08:00;;;;;;;;;12.75;12.50;;;;;24.33;38.80;101010.38;5074553;28;45445;-91
2022/08/12 07:10:26;;;;;;;;;15.50;14.50;;;;;24.19;38.27;100981.09;5075286;28;45380;-91
2022/08/12 07:12:55;;;;;;;;;11.75;11.00;;;;;24.27;37.89;100989.00;5075015;28;45529;-93
2022/08/12 07:15:23;;;;;;;;;13.50;12.75;;;;;24.45;37.69;101004.84;5074466;28;45402;-92
2022/08/12 07:18:04;;;;;;;;;14.00;12.75;;;;;24.42;37.63;100989.63;5073484;28;45268;-91
2022/08/12 07:20:31;;;;;;;;;12.50;12.00;;;;;24.32;37.18;100960.25;5075023;27;45413;-89
2022/08/12 07:22:57;;;;;;;;;12.50;12.50;;;;;24.63;36.61;100999.13;5074610;28;45350;-92
2022/08/12 07:25:33;;;;;;;;;15.00;13.00;;;;;24.50;36.83;100975.19;5074737;28;46053;-92
2022/08/12 07:28:02;;;;;;;;;12.50;12.00;;;;;24.68;36.29;100991.84;5074393;28;45943;-92
2022/08/12 07:30:33;;;;;;;;;12.50;12.50;;;;;24.64;36.38;100974.00;5074672;27;45279;-92
2022/08/12 07:33:01;;;;;;;;;14.00;13.00;;;;;24.82;36.42;100994.25;5074628;27;45455;-88
2022/08/12 07:35:33;;;;;;;;;12.00;11.00;;;;;24.73;36.32;100975.63;5072799;28;47365;-92
2022/08/12 07:37:59;;;;;;;;;13.00;11.75;;;;;24.79;36.50;100977.31;5073087;28;45531;-91
2022/08/12 07:40:26;;;;;;;;;12.75;12.75;;;;;24.97;36.63;100993.03;5074901;27;45328;-89
2022/08/12 07:42:52;;;;;;;;;12.75;11.50;;;;;25.01;36.29;100994.75;5074524;28;45304;-92
2022/08/12 07:45:19;;;;;;;;;13.50;13.25;;;;;25.05;36.45;100996.47;5074428;28;46330;-92
2022/08/12 07:47:45;;;;;;;;;11.75;11.25;;;;;25.10;35.95;100988.34;5072915;28;45944;-91
2022/08/12 07:50:13;;;;;;;;;13.25;13.00;;;;;25.05;36.45;100979.44;5072823;28;45338;-90
2022/08/12 07:52:41;;;;;;;;;11.50;11.50;;;;;25.13;36.59;100983.78;5074323;28;45262;-89
2022/08/12 07:55:07;;;;;;;;;15.75;14.25;;;;;25.21;35.97;100991.66;5073022;28;47982;-91
2022/08/12 07:57:34;;;;;;;;;13.00;12.00;;;;;25.27;35.33;100993.34;5074220;28;45500;-92
2022/08/12 08:00:04;;;;;;;;;13.25;13.00;;;;;25.25;35.89;100979.94;5089873;27;45409;-87
2022/08/12 08:02:32;;;;;;;;;11.00;11.00;;;;;25.23;35.36;100975.50;5074457;27;45349;-90
2022/08/12 08:04:59;;;;;;;;;12.25;12.00;;;;;25.37;35.40;100992.22;5089164;27;46908;-92
2022/08/12 08:07:29;;;;;;;;;12.00;12.00;;;;;25.27;35.08;100966.44;5072767;28;45362;-91
2022/08/12 08:09:59;;;;;;;;;12.25;12.25;;;;;25.48;35.08;101000.94;5089804;27;45305;-92
2022/08/12 08:15:14;;;;;;;;;11.50;11.00;;;;;25.31;35.42;100954.69;5073772;28;45324;-88
2022/08/12 08:17:40;;;;;;;;;12.25;11.75;;;;;25.55;35.39;100986.41;5076053;27;45288;-90
2022/08/12 08:20:08;;;;;;;;;13.75;12.25;;;;;25.60;35.53;100989.88;5077207;28;45394;-91
2022/08/12 08:22:37;;;;;;;;;12.25;11.25;;;;;25.70;36.17;101004.88;5076308;28;45307;-92
2022/08/12 08:25:05;;;;;;;;;11.00;11.00;;;;;25.72;35.84;101003.06;5077246;27;45738;-92
2022/08/12 08:27:44;;;;;;;;;10.00;8.75;;;;;25.76;35.13;100994.94;5075855;28;45728;-92
2022/08/12 08:30:11;;;;;;;;;13.25;13.25;;;;;25.67;35.11;100975.38;5077440;27;45559;-92
2022/08/12 08:32:38;;;;;;;;;11.75;11.25;;;;;25.83;34.95;100980.41;5093139;27;45514;-93
2022/08/12 08:35:04;;;;;;;;;10.75;10.75;;;;;25.90;34.34;100990.09;5092835;27;47562;-88
2022/08/12 08:37:30;;;;;;;;;11.25;11.25;;;;;25.98;34.70;100997.06;5075010;28;45574;-93
2022/08/12 08:42:35;;;;;;;;;12.00;11.75;;;;;25.92;34.35;100975.69;5077116;27;45390;-92
2022/08/12 08:42:41;;;;;;;;;10.75;10.25;;;;;25.87;33.67;100964.13;5076996;27;45564;-92
2022/08/12 08:45:11;;;;;;;;;11.75;11.50;;;;;25.90;34.13;100949.69;5075674;28;47274;-85
2022/08/12 08:47:47;;;;;;;;;11.00;11.00;;;;;25.98;34.22;100959.34;5075924;28;45933;-90
2022/08/12 08:50:16;;;;;;;;;10.25;10.25;;;;;25.95;33.96;100948.66;5076852;28;45530;-89
2022/08/12 08:52:43;;;;;;;;;12.00;12.00;;;;;26.26;33.42;100985.59;5092052;27;45309;-92
2022/08/12 08:55:14;;;;;;;;;9.50;9.50;;;;;26.17;33.37;100964.28;5076666;28;47267;-85
2022/08/12 08:57:48;;;;;;;;;10.75;10.75;;;;;26.13;33.48;100946.41;5076445;28;45337;-89
2022/08/12 09:00:18;;;;;;;;;11.75;10.75;;;;;26.31;33.26;100966.63;5076790;28;45435;-92
2022/08/12 09:02:45;;;;;;;;;11.25;11.25;;;;;26.37;32.99;100967.31;5092569;27;45483;-88
2022/08/12 09:05:10;;;;;;;;;10.25;10.25;;;;;26.38;32.57;100952.03;5076501;28;45445;-93
2022/08/12 09:07:44;;;;;;;;;9.75;9.75;;;;;26.53;32.64;100981.28;5091791;27;45405;-90
2022/08/12 09:10:10;;;;;;;;;10.25;10.00;;;;;26.70;33.14;100999.72;5075188;28;45331;-91
2022/08/12 09:15:20;;;;;;;;;9.00;9.00;;;;;26.56;32.85;100945.28;5076271;28;45911;-91
2022/08/12 09:17:54;;;;;;;;;12.00;11.00;;;;;26.89;32.10;100983.88;5076268;28;45402;-92
2022/08/12 09:20:21;;;;;;;;;11.00;11.00;;;;;26.77;32.56;100949.16;5092068;27;45338;-93
2022/08/12 09:22:46;;;;;;;;;9.00;9.00;;;;;26.83;31.68;100952.56;5074790;28;45393;-91
2022/08/12 09:25:12;;;;;;;;;9.67;9.67;;;;;26.87;31.59;100954.25;5075418;28;59172;-88
2022/08/12 09:27:37;;;;;;;;;10.25;10.25;;;;;26.99;32.23;100955.69;5091507;27;45404;-93
2022/08/12 09:30:03;;;;;;;;;10.00;10.00;;;;;27.09;31.76;100965.28;5075240;28;45384;-92
2022/08/12 09:32:28;;;;;;;;;11.00;10.75;;;;;27.12;32.04;100962.53;5076313;28;45534;-90
2022/08/12 09:34:53;;;;;;;;;12.00;11.00;;;;;27.09;31.04;100934.75;5091950;27;48023;-89
2022/08/12 09:37:19;;;;;;;;;8.00;8.00;;;;;27.36;31.51;100968.09;5075742;28;45215;-86
2022/08/12 09:39:44;;;;;;;;;9.25;9.25;;;;;27.30;31.36;100944.88;5076252;28;45289;-91
2022/08/12 09:47:40;;;;;;;;;8.25;8.25;;;;;27.47;31.41;100934.41;5076019;28;45412;-90
2022/08/12 09:50:05;;;;;;;;;9.50;7.50;;;;;27.65;31.06;100942.88;5075943;28;45283;-88
2022/08/12 09:52:31;;;;;;;;;8.50;8.50;;;;;27.79;30.95;100964.94;5075622;28;45472;-87
2022/08/12 09:54:57;;;;;;;;;10.00;10.00;;;;;27.81;30.87;100954.97;5074525;28;47031;-90
2022/08/12 09:57:23;;;;;;;;;8.25;8.25;;;;;27.83;30.60;100941.38;5091461;27;45536;-88
2022/08/12 09:59:48;;;;;;;;;9.00;8.00;;;;;27.82;30.59;100928.81;5075779;28;45542;-87
2022/08/12 10:02:15;;;;;;;;;10.00;9.00;;;;;27.84;30.77;100918.88;5076136;28;53448;-91
2022/08/12 10:04:47;;;;;;;;;9.50;9.00;;;;;27.98;30.20;100939.06;5076281;28;46316;-90
2022/08/12 10:07:15;;;;;;;;;7.75;7.75;;;;;27.99;30.69;100924.63;5076031;28;45819;-92
2022/08/12 10:09:41;;;;;;;;;9.50;9.00;;;;;28.07;30.33;100923.47;5075098;28;45568;-91
2022/08/12 10:14:50;;;;;;;;;9.25;9.25;;;;;28.20;29.88;100914.88;5075677;28;45825;-92
2022/08/12 10:17:21;;;;;;;;;8.75;8.75;;;;;28.40;29.35;100943.03;5091631;27;45435;-94
2022/08/12 10:19:47;;;;;;;;;10.00;10.00;;;;;28.31;29.87;100902.78;5075948;27;45536;-92
2022/08/12 10:22:14;;;;;;;;;7.25;7.25;;;;;28.41;29.98;100910.53;5075389;28;45327;-88
2022/08/12 10:24:40;;;;;;;;;9.00;9.00;;;;;28.47;29.25;100904.00;5075771;28;46416;-92
2022/08/12 10:29:51;;;;;;;;;7.00;7.00;;;;;28.68;29.64;100902.34;5075373;28;45432;-89
2022/08/12 10:32:20;;;;;;;;;9.50;9.50;;;;;28.89;29.80;100927.69;5075124;28;45410;-82
2022/08/12 10:34:47;;;;;;;;;10.75;10.00;;;;;28.86;29.42;100916.97;5074903;27;46150;-88
2022/08/12 10:37:12;;;;;;;;;8.50;7.75;;;;;28.98;29.34;100913.84;5073301;28;45426;-84
2022/08/12 10:39:38;;;;;;;;;9.25;9.00;;;;;29.12;29.19;100926.84;5074850;27;45212;-92
2022/08/12 10:44:59;;;;;;;;;7.25;7.25;;;;;29.05;28.83;100897.28;5075032;28;45879;-90
2022/08/12 10:47:29;;;;;;;;;8.00;8.00;;;;;29.16;28.46;100899.59;5090675;27;45497;-89
2022/08/12 10:49:55;;;;;;;;;9.00;9.00;;;;;29.38;28.95;100931.19;5091102;27;45517;-92
2022/08/12 10:52:24;;;;;;;;;10.00;10.00;;;;;29.29;28.39;100892.72;5074620;28;45298;-92
2022/08/12 10:54:50;;;;;;;;;9.00;8.00;;;;;29.34;28.62;100880.81;5075090;28;46196;-92
2022/08/12 10:57:17;;;;;;;;;9.00;9.00;;;;;29.39;28.42;100876.09;5073989;28;45883;-91
2022/08/12 10:59:42;;;;;;;;;10.00;9.00;;;;;29.46;28.05;100880.34;5075106;27;45366;-92
2022/08/12 11:02:12;;;;;;;;;9.00;8.00;;;;;29.67;28.29;100901.13;5075239;28;45565;-92
2022/08/12 11:04:39;;;;;;;;;8.00;8.00;;;;;29.60;28.29;100877.03;5075095;27;45646;-92
2022/08/12 11:07:06;;;;;;;;;9.50;8.00;;;;;29.62;28.19;100873.34;5073147;28;45848;-94
2022/08/12 11:09:33;;;;;;;;;8.50;8.00;;;;;29.68;28.14;100861.38;5074687;28;45370;-89
2022/08/12 11:12:01;;;;;;;;;8.00;8.00;;;;;29.79;28.13;100872.59;5074932;28;45409;-92
2022/08/12 11:14:27;;;;;;;;;5.25;5.25;;;;;29.88;27.58;100868.63;5074571;28;46113;-91
2022/08/12 11:16:56;;;;;;;;;8.25;8.00;;;;;30.06;26.96;100894.94;5074839;28;45302;-95
2022/08/12 11:19:24;;;;;;;;;8.50;8.50;;;;;29.93;26.71;100858.47;5073651;28;45371;-93
2022/08/12 11:21:51;;;;;;;;;7.00;7.00;;;;;30.00;26.90;100866.28;5074036;27;45632;-93
2022/08/12 11:24:17;;;;;;;;;8.00;8.00;;;;;30.10;27.17;100869.47;5074343;28;47840;-89
2022/08/12 11:26:42;;;;;;;;;7.25;7.25;;;;;29.96;26.55;100833.94;5074470;28;45420;-92
2022/08/12 11:29:08;;;;;;;;;8.50;8.00;;;;;30.02;26.91;100830.97;5090395;27;45585;-92
2022/08/12 11:31:33;;;;;;;;;6.50;6.50;;;;;30.20;27.02;100850.97;5074763;27;45529;-89
2022/08/12 11:33:58;;;;;;;;;7.00;7.00;;;;;30.30;26.78;100847.78;5073245;28;51723;-90
2022/08/12 11:36:24;;;;;;;;;7.50;7.00;;;;;30.43;26.17;100852.63;5074002;28;45309;-91
2022/08/12 11:38:50;;;;;;;;;8.00;8.00;;;;;30.47;26.26;100846.09;5074950;28;45596;-93
2022/08/12 11:41:16;;;;;;;;;7.00;7.00;;;;;30.52;26.22;100839.50;5090205;27;45403;-92
2022/08/12 11:43:41;;;;;;;;;7.25;6.75;;;;;30.57;26.35;100842.00;5090143;27;48360;-94
2022/08/12 11:46:07;;;;;;;;;7.00;7.00;;;;;30.70;25.95;100850.47;5073414;28;45299;-93
2022/08/12 11:48:39;;;;;;;;;7.00;7.00;;;;;30.71;26.22;100839.56;5073296;28;45365;-93
2022/08/12 11:51:08;;;;;;;;;9.75;9.75;;;;;30.80;25.28;100852.69;5074471;28;45329;-92
2022/08/12 11:53:34;;;;;;;;;7.75;7.25;;;;;30.68;26.44;100815.25;5076319;28;48054;-91
2022/08/12 11:56:00;;;;;;;;;6.25;6.25;;;;;30.95;25.94;100844.78;5078249;28;45909;-93
2022/08/12 11:58:26;;;;;;;;;6.75;6.50;;;;;30.92;25.85;100823.19;5077784;27;45382;-93
2022/08/12 12:00:52;;;;;;;;;9.00;8.50;;;;;30.88;25.75;100799.88;5078387;28;45747;-93
2022/08/12 12:03:18;;;;;;;;;7.75;7.75;;;;;30.97;24.60;100794.88;5077918;27;45439;-92
2022/08/12 12:05:43;;;;;;;;;6.75;6.25;;;;;31.24;24.60;100825.22;5076818;28;45591;-89
2022/08/12 12:08:08;;;;;;;;;7.00;6.00;;;;;31.29;24.58;100817.75;5077730;27;45335;-92
2022/08/12 12:10:34;;;;;;;;;5.00;5.00;;;;;31.21;24.49;100803.63;5077928;27;45336;-92
2022/08/12 12:12:59;;;;;;;;;6.25;6.25;;;;;31.38;24.70;100808.25;5093277;27;47166;-93
2022/08/12 12:15:25;;;;;;;;;7.75;7.75;;;;;31.29;24.71;100792.41;5093447;27;45517;-93
2022/08/12 12:17:51;;;;;;;;;7.75;7.50;;;;;31.50;24.39;100813.03;5077055;28;45687;-92
2022/08/12 12:20:17;;;;;;;;;6.25;6.00;;;;;31.51;24.13;100806.66;5076642;28;45639;-92
2022/08/12 12:22:43;;;;;;;;;7.25;6.50;;;;;31.47;24.22;100782.44;5092713;27;47042;-94
2022/08/12 12:25:09;;;;;;;;;7.50;7.25;;;;;31.73;24.36;100806.44;5093441;27;45474;-91
2022/08/12 12:27:51;;;;;;;;;7.00;7.00;;;;;31.78;24.24;100798.91;5076042;28;45292;-94
2022/08/12 12:30:16;;;;;;;;;6.50;6.25;;;;;31.99;24.50;100809.63;5077580;28;45333;-93
2022/08/12 12:32:42;;;;;;;;;5.75;5.75;;;;;32.30;23.61;100814.28;5076122;28;48526;-94
2022/08/12 12:35:08;;;;;;;;;5.25;5.25;;;;;32.45;24.37;100793.53;5077428;28;45402;-94
2022/08/12 12:37:33;;;;;;;;;7.00;6.75;;;;;32.75;24.32;100793.66;5076113;28;45423;-93
2022/08/12 12:39:59;;;;;;;;;7.50;7.00;;;;;33.01;23.29;100779.47;5077635;27;45334;-93
2022/08/12 12:42:24;;;;;;;;;6.00;5.25;;;;;33.22;23.43;100760.09;5077538;27;45741;-94
2022/08/12 12:44:50;;;;;;;;;7.00;7.00;;;;;33.60;23.08;100780.50;5075954;28;45322;-93
2022/08/12 12:47:15;;;;;;;;;6.75;6.00;;;;;33.80;23.22;100775.69;5092773;27;45278;-94
2022/08/12 12:49:41;;;;;;;;;6.25;6.25;;;;;34.08;22.56;100777.56;5077477;28;45464;-92
2022/08/12 12:52:06;;;;;;;;;6.00;6.00;;;;;34.58;23.18;100806.22;5076585;28;46069;-92
2022/08/12 12:54:32;;;;;;;;;5.75;5.75;;;;;34.98;21.65;100787.28;5075951;28;45636;-91
2022/08/12 12:56:57;;;;;;;;;5.25;5.25;;;;;36.09;20.89;100778.72;5077257;28;45422;-93
2022/08/12 12:59:26;;;;;;;;;6.50;6.50;;;;;38.99;19.55;100773.63;5093132;27;45492;-95
2022/08/12 13:01:52;;;;;;;;;8.00;8.00;;;;;42.34;17.49;100785.25;5092556;27;47162;-93
2022/08/12 13:04:17;;;;;;;;;8.75;6.75;;;;;44.70;15.74;100749.69;5092675;27;45919;-92
2022/08/12 13:06:49;;;;;;;;;6.50;6.25;;;;;46.86;14.38;100777.84;5076408;28;45292;-94
2022/08/12 13:09:14;;;;;;;;;6.25;5.75;;;;;48.50;13.18;100776.25;5076884;27;45373;-93